Home > Products > Valid Products > TAF

000
FTUS44 KEPZ 230500
TAFELP
TAF
KELP 230520Z 2306/2406 24006KT P6SM FEW070 SCT120 BKN250
     FM231700 26009KT P6SM FEW080 SCT250
     FM240100 22007KT P6SM FEW080 FEW130 SCT250=



000
FTUS44 KEPZ 230500
TAFDMN
TAF
KDMN 230520Z 2306/2406 24006KT P6SM FEW050 BKN120 BKN250
     FM231600 24008KT P6SM FEW080 SCT250
     FM240200 28008KT P6SM FEW130 SCT250=



000
FTUS44 KEPZ 230500
TAFTCS
TAF
KTCS 230520Z 2306/2406 24008KT P6SM FEW050 BKN120
     FM231700 29007KT P6SM SCT070 SCT250
     FM240300 29006KT P6SM FEW070 SCT250=



000
FTUS44 KEPZ 230300 AAA
TAFELP
TAF AMD
KELP 230309Z 2303/2324 22007KT P6SM FEW040 SCT120 OVC230
     FM230600 24006KT P6SM FEW050 SCT120 BKN250
     FM231700 26009KT P6SM SCT060 SCT250=



000
FTUS44 KEPZ 230100 AAA
TAFDMN
TAF AMD
KDMN 230103Z 2301/2324 20012G20KT 1SM -TSRA SCT070CB SCT120 BKN250
      TEMPO 2301/2302 23020G45KT 1/2SM +TSRAGS BKN050CB
     FM230300 24006KT P6SM FEW050 BKN120 BKN250
     FM231600 29008KT P6SM FEW060=



000
FTUS44 KEPZ 230000 RRA
TAFTCS
TAF
KTCS 230017Z 2300/2324 16011KT P6SM VCSH SCT060 SCT120 BKN250
      TEMPO 2300/2302 -SHRA BKN040
     FM230400 24008KT P6SM FEW040 BKN120
     FM231700 29007KT P6SM FEW060 SCT250=



000
FTUS44 KEPZ 230000 RRA
TAFELP
TAF
KELP 230017Z 2300/2324 16008KT P6SM FEW100 SCT250
     FM230300 22007KT P6SM VCTS FEW050CB BKN120 BKN250
      TEMPO 2303/2305 -TSRA SCT040CB
     FM230600 24006KT P6SM SCT060 BKN120 BKN250
     FM231700 26009KT P6SM SCT060 SCT250=



000
FTUS44 KEPZ 230000 RRA
TAFDMN
TAF
KDMN 230017Z 2300/2324 20011KT P6SM VCTS SCT060CB SCT120 BKN250
      TEMPO 2300/2302 -TSRA BKN040CB
     FM230300 24006KT P6SM FEW050 BKN120 BKN250
     FM231600 29008KT P6SM FEW060=



000
FTUS44 KEPZ 221900 AAA
TAFELP
TAF AMD
KELP 221938Z 2220/2318 15006KT P6SM VCSH SCT029 BKN100 OVC150
      TEMPO 2220/2222 -SHRA BKN029 OVC100
     FM222200 24007KT P6SM VCSH SCT040 BKN150
     FM230600 24006KT P6SM SCT060 BKN120
     FM231700 26009KT P6SM SCT060 SCT250=



000
FTUS44 KEPZ 221700
TAFDMN
TAF
KDMN 221738Z 2218/2318 VRB03KT P6SM FEW060 FEW120 BKN250
     FM222100 26007KT P6SM VCTS SCT060CB SCT120
      TEMPO 2222/2302 -TSRA BKN040CB
     FM230300 24006KT P6SM FEW050 BKN120
     FM231600 29008KT P6SM FEW060=



000
FTUS44 KEPZ 221700
TAFELP
TAF
KELP 221738Z 2218/2318 VRB03KT P6SM FEW020 SCT110 BKN180
     FM222200 24007KT P6SM VCSH SCT050 BKN200
     FM230600 24006KT P6SM SCT060 BKN120
     FM231700 26009KT P6SM SCT060 SCT250=



000
FTUS44 KEPZ 221700
TAFTCS
TAF
KTCS 221738Z 2218/2318 VRB06KT P6SM FEW050 BKN120
     FM222200 20010KT P6SM VCTS SCT060CB SCT120
      TEMPO 2222/2302 -TSRA BKN040CB
     FM230400 24008KT P6SM FEW040 BKN120
     FM231700 29007KT P6SM FEW060 SCT250=



000
FTUS44 KEPZ 221100 RRA
TAFELP
TAF
KELP 221148Z 2212/2312 27007KT P6SM -SHRA SCT025 OVC070
      TEMPO 2212/2216 5SM SHRA FEW015 OVC035
     FM221600 27006KT P6SM -SHRA SCT040 BKN080
      TEMPO 2221/2301 -TSRA BKN040CB
     FM230600 24006KT P6SM SCT040 BKN120=



000
FTUS44 KEPZ 221100 RRA
TAFDMN
TAF
KDMN 221148Z 2212/2312 30007KT P6SM SCT050 BKN100
      TEMPO 2214/2218 6SM -SHRA SCT025 BKN050
     FM221800 25007KT P6SM -SHRA SCT040 BKN070
      TEMPO 2222/2302 -TSRA BKN040CB
     FM230300 24006KT P6SM FEW050 BKN120=



000
FTUS44 KEPZ 221100 RRA
TAFTCS
TAF
KTCS 221148Z 2212/2312 29009KT P6SM -SHRA FEW020 OVC050
     FM222100 20010KT P6SM -SHRA SCT040 BKN070
      TEMPO 2222/2302 -TSRA BKN040CB
     FM230400 24008KT P6SM FEW040 BKN120=



000
FTUS44 KEPZ 220500
TAFELP
TAF
KELP 220526Z 2206/2306 20010KT P6SM -SHRA BKN070 BKN120
      TEMPO 2207/2211 6SM -TSRA SCT060CB
     FM221100 20011KT P6SM VCSH FEW015 BKN040 OVC070
      TEMPO 2211/2214 6SM -SHRA
     FM221700 22006KT P6SM VCSH SCT040 BKN070 OVC110
     FM222300 19008KT P6SM SCT050 SCT080 OVC120
     FM230300 16006KT P6SM FEW050 SCT080 BKN110=



000
FTUS44 KEPZ 220500
TAFDMN
TAF
KDMN 220526Z 2206/2306 24010KT P6SM VCTS SCT060CB BKN150
      TEMPO 2207/2211 6SM -TSRA SCT025 BKN050CB
     FM221200 19005KT P6SM -SHRA FEW025 BKN040 OVC070
      TEMPO 2212/2215 28012G22KT 5SM -SHRA
     FM221700 20007KT P6SM SCT040 BKN070 OVC110
     FM222200 23008KT P6SM FEW050 SCT080 OVC120
     FM230300 26006KT P6SM FEW050 SCT080 BKN120=



000
FTUS44 KEPZ 220500
TAFTCS
TAF
KTCS 220526Z 2206/2306 26010KT P6SM VCSH SCT060 BKN150
      TEMPO 2207/2210 6SM -SHRA SCT020 BKN050
     FM221000 28011KT P6SM -SHRA FEW005 BKN030 OVC060
     FM221900 14006KT P6SM SCT040 BKN070 OVC100
     FM222200 19008KT P6SM FEW040 SCT070 BKN110
     FM230400 23006KT P6SM FEW040 SCT070 SCT110=



000
FTUS44 KEPZ 220400 AAB
TAFELP
TAF AMD
KELP 220419Z 2204/2224 20010KT P6SM VCSH SCT070 BKN150
      TEMPO 2204/2207 P6SM -SHRA SCT030 BKN060
     FM220700 28011KT P6SM -SHRA FEW015 BKN040 OVC070
      TEMPO 2207/2210 VRB15G25KT 5SM -TSRA SCT015 BKN040CB
     FM221700 28006KT P6SM SCT040 BKN070 OVC110=



000
FTUS44 KEPZ 220300 AAA
TAFELP
TAF AMD
KELP 220302Z 2203/2224 17010G18KT P6SM VCSH SCT070 BKN150
      TEMPO 2203/2207 P6SM -SHRA SCT030 BKN060
     FM220900 28011KT P6SM -SHRA FEW015 BKN040 OVC070
      TEMPO 2209/2212 5SM -SHRA
     FM221700 28006KT P6SM SCT040 BKN070 OVC110=



000
FTUS44 KEPZ 220200 AAA
TAFTCS
TAF AMD
KTCS 220246Z 2203/2224 22010KT P6SM SCT060 SCT250
     FM220500 26010KT P6SM VCSH SCT060 BKN150
      TEMPO 2205/2209 6SM -SHRA SCT020 BKN050
     FM221000 28011KT P6SM -SHRA FEW005 BKN030 OVC060
     FM221900 14006KT P6SM SCT040 BKN070 OVC110=



000
FTUS44 KEPZ 212300 RRA
TAFTCS
TAF
KTCS 212338Z 2200/2224 22010KT P6SM SCT060 SCT250
     FM220300 24010KT P6SM VCTS SCT060CB BKN150
      TEMPO 2204/2208 6SM -TSRA SCT020 BKN050CB
     FM221100 28011KT P6SM -SHRA FEW005 BKN030 OVC060
      TEMPO 2211/2214 5SM -SHRA
     FM221900 14006KT P6SM SCT040 BKN070 OVC110=



000
FTUS44 KEPZ 212300 RRA
TAFDMN
TAF
KDMN 212338Z 2200/2224 25008KT P6SM SCT070 SCT250
     FM220200 24010KT P6SM VCTS SCT060CB BKN150
      TEMPO 2203/2207 6SM -TSRA SCT025 BKN050CB
     FM220900 25008KT P6SM -SHRA FEW015 BKN040 OVC070
      TEMPO 2209/2212 28012G22KT 5SM -SHRA
     FM221700 20007KT P6SM SCT040 BKN070 OVC110=



000
FTUS44 KEPZ 212300 RRA
TAFELP
TAF
KELP 212338Z 2200/2224 24009KT P6SM FEW070 SCT250
     FM220200 24010G18KT P6SM VCTS SCT070CB BKN150
      TEMPO 2203/2207 6SM -TSRA SCT030 BKN060CB
     FM220900 28011KT P6SM -SHRA FEW015 BKN040 OVC070
      TEMPO 2209/2212 28012G22KT 5SM -SHRA
     FM221700 28006KT P6SM SCT040 BKN070 OVC110=



000
FTUS44 KEPZ 211800 CCA
TAFDMN
TAF COR
KDMN 211828Z 2118/2218 25007KT P6SM FEW250
     FM212000 25008KT P6SM SCT070 SCT250
     FM212300 24010KT P6SM VCTS SCT060CB BKN150
      TEMPO 2201/2205 6SM -TSRA SCT025 BKN050CB=



000
FTUS44 KEPZ 211800 CCA
TAFTCS
TAF COR
KTCS 211828Z 2118/2218 16007KT P6SM FEW250
     FM212100 22010KT P6SM SCT060 SCT250
     FM220000 24010KT P6SM VCTS SCT060CB BKN150
      TEMPO 2202/2206 6SM -TSRA SCT020 BKN050CB=



000
FTUS44 KEPZ 211800 CCA
TAFELP
TAF COR
KELP 211828Z 2118/2218 22008KT P6SM FEW150 SCT250
     FM212000 24009KT P6SM FEW070 SCT250
     FM220000 24010G18KT P6SM VCTS SCT070CB BKN150
      TEMPO 2204/2208 6SM -TSRA SCT030 BKN060CB=



000
FTUS44 KEPZ 211700 RRA
TAFTCS
TAF
KTCS 211749Z 2118/2218 16007KT P6SM FEW250
     FM212100 22010KT P6SM SCT060 SCT250
     FM220000 24010KT P6SM VCTS SCT060CB BKN150
      TEMPO 2201/2205 6SM -TSRA SCT020 BKN050CB=



000
FTUS44 KEPZ 211700 RRA
TAFDMN
TAF
KDMN 211749Z 2118/2218 25007KT P6SM FEW250
     FM212000 25008KT P6SM SCT070 SCT250
     FM212300 24010KT P6SM VCTS SCT060CB BKN150
      TEMPO 2123/2203 6SM -TSRA SCT025 BKN050CB=



000
FTUS44 KEPZ 211700 RRA
TAFELP
TAF
KELP 211749Z 2118/2218 22008KT P6SM FEW150 SCT250
     FM212000 24009KT P6SM FEW070 SCT250
     FM220000 24010G18KT P6SM VCTS SCT070CB BKN150
      TEMPO 2200/2204 6SM -TSRA SCT030 BKN060CB=



000
FTUS44 KEPZ 211100
TAFTCS
TAF
KTCS 211135Z 2112/2212 31007KT P6SM FEW250
     FM212100 20012KT P6SM SCT060 SCT250
     FM220000 24010KT P6SM VCTS SCT060CB BKN150
      TEMPO 2201/2205 6SM -TSRA SCT020 BKN050CB=



000
FTUS44 KEPZ 211100
TAFDMN
TAF
KDMN 211135Z 2112/2212 29007KT P6SM FEW250
     FM211900 25008KT P6SM SCT070 SCT250
     FM212300 24012KT P6SM VCTS SCT060CB BKN150
      TEMPO 2123/2203 6SM -TSRA SCT025 BKN050CB=



000
FTUS44 KEPZ 211100
TAFELP
TAF
KELP 211135Z 2112/2212 28008KT P6SM FEW250
     FM212000 23009KT P6SM SCT070 SCT250
     FM220000 24012KT P6SM VCTS SCT070CB BKN150
      TEMPO 2200/2204 6SM -TSRA SCT030 BKN060CB=



000
FTUS44 KEPZ 210500
TAFDMN
TAF
KDMN 210530Z 2106/2206 27010KT P6SM FEW200
     FM212000 22007KT P6SM VCTS SCT070CB SCT250
     FM220300 24010KT P6SM SCT090 SCT250=



000
FTUS44 KEPZ 210500
TAFTCS
TAF
KTCS 210530Z 2106/2206 31006KT P6SM FEW250
     FM211300 VRB05KT P6SM FEW250
     FM211900 16007KT P6SM VCTS SCT070CB SCT250
     FM220400 24007KT P6SM SCT100 SCT250=



000
FTUS44 KEPZ 210500
TAFELP
TAF
KELP 210530Z 2106/2206 26012KT P6SM FEW120 FEW250
     FM212000 22010KT P6SM SCT070 SCT250=



000
FTUS44 KEPZ 202300
TAFDMN
TAF
KDMN 202325Z 2100/2124 28010KT P6SM FEW100
     FM210600 VRB04KT P6SM FEW200
     FM212000 22007KT P6SM VCTS SCT070CB SCT250=



000
FTUS44 KEPZ 202300
TAFTCS
TAF
KTCS 202325Z 2100/2124 31005KT P6SM SCT100
     FM211300 VRB05KT P6SM FEW120
     FM211900 16007KT P6SM VCTS SCT070CB SCT250=



000
FTUS44 KEPZ 202300
TAFELP
TAF
KELP 202325Z 2100/2124 29007KT P6SM FEW080 FEW250
     FM212000 22010KT P6SM SCT070 SCT250=



000
FTUS44 KEPZ 201700
TAFELP
TAF
KELP 201720Z 2018/2118 28010KT P6SM FEW070 SCT150 SCT250
     FM202300 29007KT P6SM FEW070 SCT250=



000
FTUS44 KEPZ 201700
TAFDMN
TAF
KDMN 201720Z 2018/2118 29012KT P6SM FEW070 SCT150
     FM202300 27010KT P6SM SCT070 SCT150=



000
FTUS44 KEPZ 201700
TAFTCS
TAF
KTCS 201720Z 2018/2118 02006KT P6SM SCT060 SCT150
     FM202200 30005KT P6SM SCT060 SCT120=



000
FTUS44 KEPZ 201100
TAFELP
TAF
KELP 201135Z 2012/2112 26010KT P6SM SCT250
     FM201700 27012KT P6SM FEW070 SCT250
     FM202300 28010KT P6SM VCTS SCT070CB BKN250=



000
FTUS44 KEPZ 201100
TAFTCS
TAF
KTCS 201135Z 2012/2112 30008KT P6SM SCT140 BKN250
     FM201800 21011KT P6SM SCT060 SCT150
     FM202200 25010KT P6SM VCTS SCT060CB=



000
FTUS44 KEPZ 201100
TAFDMN
TAF
KDMN 201135Z 2012/2112 26011KT P6SM SCT140 SCT250
     FM201800 29012KT P6SM FEW070 SCT150
     FM202300 28010KT P6SM VCTS SCT070CB SCT150=



    US Dept of Commerce
    National Oceanic and Atmospheric Administration
    National Weather Service
    1325 East West Highway
    Silver Spring, MD 20910
    Page Author: NWS Internet Services Team
Disclaimer
Information Quality
Credits
Glossary
Privacy Policy
Freedom of Information Act (FOIA)
About Us
Career Opportunities